createdAt,value
2019-05-21T00:02:08.861Z,66.61
2019-05-21T00:04:35.618Z,66.47
2019-05-21T00:07:02.525Z,66.26
2019-05-21T00:09:29.326Z,66.23
2019-05-21T00:11:56.097Z,66.27
2019-05-21T00:14:23.003Z,66.45
2019-05-21T00:16:49.747Z,66.33
2019-05-21T00:19:16.494Z,66.64
2019-05-21T00:21:43.284Z,66.79
2019-05-21T00:24:10.036Z,66.38
2019-05-21T00:26:36.803Z,66.22
2019-05-21T00:29:59.320Z,66.47
2019-05-21T00:33:22.147Z,66.58
2019-05-21T00:36:44.694Z,67.00
2019-05-21T00:40:07.160Z,67.24
2019-05-21T00:42:39.381Z,67.60
2019-05-21T00:45:09.514Z,67.80
2019-05-21T00:47:36.238Z,67.82
2019-05-21T00:50:06.360Z,67.43
2019-05-21T00:52:33.086Z,67.48
2019-05-21T00:54:59.853Z,67.27
2019-05-21T00:57:26.650Z,67.21
2019-05-21T00:59:53.455Z,67.28
2019-05-21T01:02:20.147Z,67.29
2019-05-21T01:04:59.476Z,67.23
2019-05-21T01:07:15.507Z,67.07
2019-05-21T01:09:42.243Z,66.98
2019-05-21T01:12:09.177Z,66.98
2019-05-21T01:14:35.891Z,66.94
2019-05-21T01:17:02.631Z,66.98
2019-05-21T01:19:29.548Z,67.08
2019-05-21T01:21:56.261Z,67.04
2019-05-21T01:24:23.002Z,66.71
2019-05-21T01:26:49.787Z,66.69
2019-05-21T01:29:16.545Z,66.56
2019-05-21T01:31:43.269Z,66.61
2019-05-21T01:34:11.549Z,66.61
2019-05-21T01:36:38.680Z,66.83
2019-05-21T01:39:05.651Z,67.07
2019-05-21T01:41:32.493Z,67.24
2019-05-21T01:43:59.291Z,67.08
2019-05-21T01:46:26.041Z,67.15
2019-05-21T01:48:52.822Z,67.25
2019-05-21T01:51:19.549Z,67.27
2019-05-21T01:53:46.351Z,67.55
2019-05-21T01:56:13.285Z,67.56
2019-05-21T01:58:40.106Z,67.55
2019-05-21T02:01:06.844Z,67.30
2019-05-21T02:03:33.633Z,67.00
2019-05-21T02:06:00.372Z,67.03
2019-05-21T02:08:27.171Z,67.03
2019-05-21T02:10:54.085Z,67.28
2019-05-21T02:13:20.972Z,67.69
2019-05-21T02:15:47.782Z,67.78
2019-05-21T02:18:14.554Z,67.83
2019-05-21T02:20:41.298Z,67.55
2019-05-21T02:23:08.085Z,67.56
2019-05-21T02:25:34.825Z,67.59
2019-05-21T02:28:01.680Z,67.66
2019-05-21T02:30:28.416Z,67.46
2019-05-21T02:32:55.214Z,67.52
2019-05-21T02:35:21.961Z,67.48
2019-05-21T02:37:48.694Z,67.64
2019-05-21T02:40:16.372Z,67.66
2019-05-21T02:42:43.116Z,67.48
2019-05-21T02:45:10.835Z,67.35
2019-05-21T02:47:37.590Z,67.42
2019-05-21T02:50:06.790Z,67.18
2019-05-21T02:52:33.521Z,67.13
2019-05-21T02:55:00.409Z,67.32
2019-05-21T02:57:27.160Z,67.38
2019-05-21T02:59:53.966Z,67.49
2019-05-21T03:02:20.727Z,67.62
2019-05-21T03:04:47.545Z,67.68
2019-05-21T03:07:14.292Z,67.46
2019-05-21T03:09:41.081Z,67.34
2019-05-21T03:12:07.928Z,67.48
2019-05-21T03:14:34.681Z,67.42
2019-05-21T03:17:01.399Z,67.49
2019-05-21T03:19:28.201Z,67.41
2019-05-21T03:21:54.988Z,67.24
2019-05-21T03:24:21.776Z,67.52
2019-05-21T03:26:48.509Z,67.70
2019-05-21T03:29:15.307Z,67.64
2019-05-21T03:31:42.037Z,67.14
2019-05-21T03:34:08.836Z,67.40
2019-05-21T03:36:35.563Z,67.48
2019-05-21T03:39:02.464Z,67.05
2019-05-21T03:41:29.203Z,67.19
2019-05-21T03:43:56.041Z,67.24
2019-05-21T03:46:22.755Z,67.29
2019-05-21T03:48:49.584Z,67.30
2019-05-21T03:51:17.190Z,67.54
2019-05-21T03:53:43.997Z,67.62
2019-05-21T03:56:10.734Z,67.76
2019-05-21T03:58:37.521Z,67.76
2019-05-21T04:01:04.255Z,67.79
2019-05-21T04:03:31.009Z,67.70
2019-05-21T04:05:57.800Z,67.77
2019-05-21T04:08:24.529Z,67.57
2019-05-21T04:10:51.332Z,67.76
2019-05-21T04:13:18.120Z,67.88
2019-05-21T04:15:44.888Z,67.98
2019-05-21T04:18:11.684Z,67.98
2019-05-21T04:20:38.429Z,67.95
2019-05-21T04:23:05.176Z,67.90
2019-05-21T04:25:31.966Z,67.82
2019-05-21T04:27:58.720Z,68.49
2019-05-21T04:30:25.515Z,67.77
2019-05-21T04:32:52.259Z,67.01
2019-05-21T04:35:19.064Z,67.00
2019-05-21T04:37:45.823Z,67.20
2019-05-21T04:40:12.942Z,67.35
2019-05-21T04:42:39.691Z,67.10
2019-05-21T04:45:07.003Z,66.91
2019-05-21T04:47:33.758Z,67.03
2019-05-21T04:50:00.562Z,67.10
2019-05-21T04:52:27.341Z,67.14
2019-05-21T04:54:54.144Z,67.40
2019-05-21T04:57:20.895Z,67.69
2019-05-21T04:59:47.697Z,67.89
2019-05-21T05:02:14.442Z,67.88
2019-05-21T05:04:41.270Z,67.59
2019-05-21T05:07:08.015Z,67.30
2019-05-21T05:09:34.817Z,67.46
2019-05-21T05:12:01.577Z,67.21
2019-05-21T05:14:28.374Z,66.92
2019-05-21T05:16:55.099Z,66.77
2019-05-21T05:19:21.893Z,66.98
2019-05-21T05:21:48.624Z,67.06
2019-05-21T05:24:15.352Z,66.96
2019-05-21T05:26:42.149Z,66.77
2019-05-21T05:29:08.893Z,66.68
2019-05-21T05:31:35.699Z,67.03
2019-05-21T05:34:02.595Z,67.29
2019-05-21T05:36:29.689Z,67.34
2019-05-21T05:38:56.452Z,67.00
2019-05-21T05:41:23.188Z,66.96
2019-05-21T05:43:50.066Z,67.47
2019-05-21T05:46:16.838Z,67.51
2019-05-21T05:48:43.598Z,67.48
2019-05-21T05:51:10.377Z,67.30
2019-05-21T05:53:37.121Z,66.84
2019-05-21T05:56:03.881Z,66.26
2019-05-21T05:58:30.761Z,66.46
2019-05-21T06:00:57.495Z,66.38
2019-05-21T06:03:24.268Z,66.50
2019-05-21T06:05:51.068Z,66.04
2019-05-21T06:08:17.799Z,65.31
2019-05-21T06:10:44.536Z,65.27
2019-05-21T06:13:11.483Z,65.16
2019-05-21T06:15:38.185Z,64.91
2019-05-21T06:18:04.930Z,64.62
2019-05-21T06:20:31.750Z,63.69
2019-05-21T06:22:58.484Z,64.21
2019-05-21T06:25:25.644Z,64.90
2019-05-21T06:27:52.468Z,64.89
2019-05-21T06:30:19.220Z,64.42
2019-05-21T06:32:46.011Z,63.98
2019-05-21T06:35:13.388Z,64.22
2019-05-21T06:37:40.143Z,64.11
2019-05-21T06:40:07.377Z,63.49
2019-05-21T06:42:34.194Z,63.56
2019-05-21T06:45:01.090Z,63.96
2019-05-21T06:47:27.878Z,63.64
2019-05-21T06:49:54.704Z,63.82
2019-05-21T06:52:21.434Z,63.59
2019-05-21T06:54:48.170Z,63.17
2019-05-21T06:57:14.975Z,64.28
2019-05-21T06:59:41.723Z,63.75
2019-05-21T07:02:08.494Z,63.92
2019-05-21T07:04:35.501Z,64.08
2019-05-21T07:07:02.334Z,64.86
2019-05-21T07:09:29.076Z,65.07
2019-05-21T07:11:55.978Z,65.05
2019-05-21T07:14:22.731Z,64.69
2019-05-21T07:16:49.465Z,64.57
2019-05-21T07:19:16.388Z,64.74
2019-05-21T07:21:43.118Z,64.51
2019-05-21T07:24:09.884Z,64.50
2019-05-21T07:26:36.773Z,64.50
2019-05-21T07:29:03.550Z,64.40
2019-05-21T07:31:30.284Z,63.88
2019-05-21T07:33:57.179Z,63.40
2019-05-21T07:36:23.941Z,63.39
2019-05-21T07:38:53.794Z,63.34
2019-05-21T07:41:20.387Z,63.44
2019-05-21T07:43:47.371Z,63.68
2019-05-21T07:46:14.145Z,63.60
2019-05-21T07:48:40.950Z,63.24
2019-05-21T07:51:07.704Z,63.86
2019-05-21T07:53:34.460Z,62.79
2019-05-21T07:56:01.266Z,63.23
2019-05-21T07:58:28.010Z,62.96
2019-05-21T08:00:54.748Z,63.42
2019-05-21T08:03:21.643Z,63.05
2019-05-21T08:05:48.392Z,62.67
2019-05-21T08:08:15.137Z,62.32
2019-05-21T08:10:41.930Z,62.21
2019-05-21T08:13:08.693Z,62.01
2019-05-21T08:15:35.418Z,62.00
2019-05-21T08:18:02.228Z,61.78
2019-05-21T08:20:29.067Z,61.44
2019-05-21T08:22:55.803Z,60.59
2019-05-21T08:25:22.687Z,60.30
2019-05-21T08:27:49.946Z,59.98
2019-05-21T08:30:17.417Z,59.98
2019-05-21T08:32:44.299Z,60.07
2019-05-21T08:35:13.503Z,60.35
2019-05-21T08:37:40.207Z,60.05
2019-05-21T08:40:08.293Z,59.70
2019-05-21T08:42:35.333Z,59.74
2019-05-21T08:45:04.431Z,59.30
2019-05-21T08:47:31.454Z,59.03
2019-05-21T08:49:58.215Z,58.92
2019-05-21T08:52:24.959Z,58.82
2019-05-21T08:54:55.571Z,59.05
2019-05-21T08:57:21.305Z,58.99
2019-05-21T08:59:48.126Z,58.90
2019-05-21T09:02:15.608Z,58.73
2019-05-21T09:04:46.329Z,57.97
2019-05-21T09:07:11.114Z,58.26
2019-05-21T09:09:49.082Z,57.41
2019-05-21T09:12:06.751Z,59.06
2019-05-21T09:14:33.489Z,57.21
2019-05-21T09:17:01.681Z,57.91
2019-05-21T09:19:28.403Z,57.92
2019-05-21T09:21:55.249Z,58.00
2019-05-21T09:24:22.143Z,57.77
2019-05-21T09:26:48.893Z,57.36
2019-05-21T09:29:15.644Z,57.74
2019-05-21T09:31:42.435Z,58.21
2019-05-21T09:34:09.149Z,58.44
2019-05-21T09:36:35.882Z,57.32
2019-05-21T09:39:05.866Z,57.77
2019-05-21T09:41:32.613Z,56.94
2019-05-21T09:43:59.394Z,56.53
2019-05-21T09:46:26.200Z,56.98
2019-05-21T09:48:56.021Z,57.53
2019-05-21T09:51:21.506Z,57.14
2019-05-21T09:53:48.428Z,56.83
2019-05-21T09:56:15.195Z,56.33
2019-05-21T09:58:41.956Z,56.12
2019-05-21T10:01:08.745Z,56.76
2019-05-21T10:03:35.805Z,56.62
2019-05-21T10:06:02.530Z,56.09
2019-05-21T10:08:29.320Z,55.56
2019-05-21T10:10:56.100Z,55.15
2019-05-21T10:13:22.819Z,55.25
2019-05-21T10:15:49.641Z,56.06
2019-05-21T10:18:16.364Z,56.23
2019-05-21T10:20:43.083Z,56.53
2019-05-21T10:23:09.983Z,56.38
2019-05-21T10:25:36.851Z,55.76
2019-05-21T10:28:03.682Z,55.94
2019-05-21T10:30:30.630Z,56.30
2019-05-21T10:32:57.317Z,56.67
2019-05-21T10:35:24.082Z,56.51
2019-05-21T10:37:54.929Z,56.80
2019-05-21T10:40:19.640Z,56.39
2019-05-21T10:42:46.390Z,55.86
2019-05-21T10:45:13.438Z,55.62
2019-05-21T10:47:40.152Z,54.93
2019-05-21T10:50:07.037Z,53.86
2019-05-21T10:52:34.009Z,54.01
2019-05-21T10:55:00.748Z,54.16
2019-05-21T10:57:27.527Z,53.36
2019-05-21T10:59:54.758Z,53.26
2019-05-21T11:02:24.670Z,52.06
2019-05-21T11:04:51.719Z,51.88
2019-05-21T11:07:18.512Z,51.89
2019-05-21T11:09:45.276Z,51.31
2019-05-21T11:12:11.994Z,51.34
2019-05-21T11:14:38.896Z,50.49
2019-05-21T11:17:05.735Z,50.41
2019-05-21T11:19:33.211Z,49.53
2019-05-21T11:22:00.077Z,50.20
2019-05-21T11:24:26.809Z,50.25
2019-05-21T11:26:53.562Z,50.45
2019-05-21T11:29:20.470Z,51.01
2019-05-21T11:31:56.388Z,50.64
2019-05-21T11:34:15.786Z,50.77
2019-05-21T11:36:42.607Z,50.92
2019-05-21T11:39:09.462Z,51.29
2019-05-21T11:41:36.188Z,51.50
2019-05-21T11:44:03.518Z,51.43
2019-05-21T11:46:30.310Z,51.14
2019-05-21T11:48:57.064Z,50.99
2019-05-21T11:51:23.847Z,52.29
2019-05-21T11:53:50.593Z,51.98
2019-05-21T11:56:17.327Z,52.16
2019-05-21T11:58:44.451Z,51.42
2019-05-21T12:01:11.190Z,51.81
2019-05-21T12:03:37.924Z,51.83
2019-05-21T12:06:04.730Z,51.56
2019-05-21T12:08:31.476Z,51.89
2019-05-21T12:10:58.212Z,51.76
2019-05-21T12:13:25.146Z,51.90
2019-05-21T12:15:51.883Z,52.26
2019-05-21T12:18:18.645Z,52.13
2019-05-21T12:20:45.564Z,52.44
2019-05-21T12:23:12.310Z,52.02
2019-05-21T12:25:39.076Z,51.94
2019-05-21T12:28:05.893Z,51.92
2019-05-21T12:30:32.623Z,52.04
2019-05-21T12:32:59.405Z,51.80
2019-05-21T12:35:26.304Z,52.14
2019-05-21T12:38:12.778Z,51.61
2019-05-21T12:40:39.596Z,51.11
2019-05-21T12:43:06.313Z,51.58
2019-05-21T12:45:33.057Z,51.51
2019-05-21T12:47:59.913Z,51.77
2019-05-21T12:50:26.638Z,51.48
2019-05-21T12:52:53.393Z,51.78
2019-05-21T12:55:20.337Z,51.69
2019-05-21T12:57:47.030Z,51.59
2019-05-21T13:00:14.495Z,51.65
2019-05-21T13:02:41.308Z,51.50
2019-05-21T13:05:11.268Z,52.21
2019-05-21T13:07:36.788Z,52.11
2019-05-21T13:10:05.618Z,52.21
2019-05-21T13:12:32.357Z,52.16
2019-05-21T13:14:59.131Z,52.20
2019-05-21T13:17:25.920Z,51.82
2019-05-21T13:19:52.654Z,51.52
2019-05-21T13:22:19.399Z,51.52
2019-05-21T13:24:46.319Z,51.74
2019-05-21T13:27:13.053Z,51.81
2019-05-21T13:29:39.814Z,51.38
2019-05-21T13:32:06.586Z,52.23
2019-05-21T13:34:33.639Z,51.99
2019-05-21T13:37:00.376Z,52.95
2019-05-21T13:39:27.219Z,52.40
2019-05-21T13:41:53.971Z,52.22
2019-05-21T13:44:20.727Z,51.98
2019-05-21T13:46:47.565Z,51.22
2019-05-21T13:49:14.327Z,51.50
2019-05-21T13:51:41.161Z,52.11
2019-05-21T13:54:08.114Z,51.32
2019-05-21T13:56:34.820Z,52.48
2019-05-21T13:59:01.983Z,52.30
2019-05-21T14:01:40.164Z,51.86
2019-05-21T14:03:57.452Z,51.23
2019-05-21T14:06:24.201Z,50.86
2019-05-21T14:08:51.293Z,50.75
2019-05-21T14:11:18.027Z,50.40
2019-05-21T14:13:44.792Z,51.00
2019-05-21T14:16:11.816Z,50.59
2019-05-21T14:18:40.621Z,50.11
2019-05-21T14:21:07.550Z,51.14
2019-05-21T14:23:34.372Z,50.72
2019-05-21T14:26:01.183Z,50.56
2019-05-21T14:28:28.435Z,50.82
2019-05-21T14:30:55.362Z,51.34
2019-05-21T14:33:22.203Z,50.75
2019-05-21T14:35:50.260Z,50.99
2019-05-21T14:38:17.302Z,51.09
2019-05-21T14:40:44.013Z,50.65
2019-05-21T14:43:10.774Z,51.03
2019-05-21T14:45:37.643Z,50.54
2019-05-21T14:48:04.429Z,50.27
2019-05-21T14:50:31.999Z,50.15
2019-05-21T14:52:59.073Z,50.25
2019-05-21T14:55:25.803Z,51.01
2019-05-21T14:57:52.720Z,51.14
2019-05-21T15:00:22.065Z,51.19
2019-05-21T15:02:49.078Z,51.23
2019-05-21T15:05:16.764Z,51.07
2019-05-21T15:07:43.694Z,50.61
2019-05-21T15:10:11.260Z,51.02
2019-05-21T15:12:37.977Z,50.84
2019-05-21T15:15:06.020Z,50.21
2019-05-21T15:17:32.816Z,49.78
2019-05-21T15:19:59.655Z,50.34
2019-05-21T15:22:26.840Z,50.63
2019-05-21T15:24:53.576Z,49.66
2019-05-21T15:27:20.323Z,50.23
2019-05-21T15:29:47.137Z,51.19
2019-05-21T15:32:13.877Z,50.55
2019-05-21T15:34:40.677Z,50.41
2019-05-21T15:37:07.604Z,50.64
2019-05-21T15:39:34.348Z,50.04
2019-05-21T15:42:01.073Z,50.48
2019-05-21T15:44:27.881Z,50.66
2019-05-21T15:46:54.621Z,50.18
2019-05-21T15:49:35.162Z,50.56
2019-05-21T15:51:50.089Z,50.08
2019-05-21T15:54:16.830Z,50.23
2019-05-21T15:56:43.569Z,49.99
2019-05-21T15:59:10.639Z,49.88
2019-05-21T16:01:40.575Z,49.81
2019-05-21T16:04:06.942Z,50.17
2019-05-21T16:06:33.841Z,50.04
2019-05-21T16:09:00.598Z,49.73
2019-05-21T16:11:29.109Z,49.76
2019-05-21T16:13:56.083Z,49.96
2019-05-21T16:16:22.825Z,50.13
2019-05-21T16:18:49.550Z,49.79
2019-05-21T16:21:16.897Z,49.91
2019-05-21T16:23:43.610Z,49.87
2019-05-21T16:26:10.344Z,49.78
2019-05-21T16:28:37.348Z,49.93
2019-05-21T16:31:04.370Z,50.14
2019-05-21T16:33:38.019Z,49.92
2019-05-21T16:36:00.302Z,50.46
2019-05-21T16:38:27.138Z,50.22
2019-05-21T16:40:53.902Z,50.47
2019-05-21T16:43:21.094Z,50.83
2019-05-21T16:45:47.837Z,51.18
2019-05-21T16:48:14.745Z,50.95
2019-05-21T16:50:41.780Z,51.01
2019-05-21T16:53:08.731Z,51.16
2019-05-21T16:55:35.586Z,51.48
2019-05-21T16:58:02.386Z,51.62
2019-05-21T17:00:29.417Z,51.80
2019-05-21T17:02:56.348Z,52.40
2019-05-21T17:05:23.345Z,53.30
2019-05-21T17:07:50.088Z,53.92
2019-05-21T17:10:18.874Z,54.30
2019-05-21T17:12:45.734Z,54.65
2019-05-21T17:15:19.035Z,55.59
2019-05-21T17:17:45.756Z,55.39
2019-05-21T17:20:15.266Z,56.33
2019-05-21T17:22:42.012Z,57.37
2019-05-21T17:25:09.194Z,57.44
2019-05-21T17:27:36.188Z,57.44
2019-05-21T17:30:09.017Z,58.14
2019-05-21T17:32:36.062Z,59.32
2019-05-21T17:35:07.051Z,58.97
2019-05-21T17:37:44.751Z,59.27
2019-05-21T17:40:13.913Z,56.79
2019-05-21T17:42:41.247Z,57.52
2019-05-21T17:45:09.086Z,56.48
2019-05-21T17:47:37.487Z,56.80
2019-05-21T17:50:08.121Z,56.90
2019-05-21T17:52:38.056Z,57.30
2019-05-21T17:55:05.106Z,56.96
2019-05-21T17:57:31.871Z,57.06
2019-05-21T17:59:58.672Z,57.07
2019-05-21T18:02:25.613Z,56.82
2019-05-21T18:04:52.362Z,57.66
2019-05-21T18:07:20.385Z,57.46
2019-05-21T18:09:47.493Z,57.84
2019-05-21T18:12:14.678Z,58.41
2019-05-21T18:14:41.558Z,57.42
2019-05-21T18:17:08.400Z,57.59
2019-05-21T18:19:35.944Z,57.55
2019-05-21T18:22:03.723Z,58.06
2019-05-21T18:24:30.557Z,57.68
2019-05-21T18:26:57.683Z,57.89
2019-05-21T18:29:24.872Z,57.38
2019-05-21T18:31:51.614Z,56.92
2019-05-21T18:34:18.653Z,56.40
2019-05-21T18:36:45.564Z,56.34
2019-05-21T18:39:12.393Z,56.32
2019-05-21T18:41:39.242Z,56.53
2019-05-21T18:44:06.043Z,56.23
2019-05-21T18:46:32.771Z,56.23
2019-05-21T18:48:59.485Z,55.98
2019-05-21T18:51:26.305Z,55.81
2019-05-21T18:53:53.056Z,56.87
2019-05-21T18:56:19.781Z,57.46
2019-05-21T18:58:46.774Z,57.66
2019-05-21T19:01:13.807Z,57.71
2019-05-21T19:03:40.848Z,57.35
2019-05-21T19:06:07.618Z,57.24
2019-05-21T19:08:34.345Z,57.44
2019-05-21T19:11:01.078Z,57.71
2019-05-21T19:13:28.369Z,58.01
2019-05-21T19:15:55.233Z,57.66
2019-05-21T19:18:22.078Z,58.53
2019-05-21T19:20:50.075Z,58.48
2019-05-21T19:23:17.280Z,58.44
2019-05-21T19:25:44.022Z,58.53
2019-05-21T19:28:11.024Z,58.56
2019-05-21T19:30:38.157Z,58.62
2019-05-21T19:33:05.702Z,59.05
2019-05-21T19:35:33.314Z,59.19
2019-05-21T19:38:00.214Z,59.37
2019-05-21T19:40:27.051Z,59.68
2019-05-21T19:42:55.561Z,59.88
2019-05-21T19:45:22.493Z,60.06
2019-05-21T19:47:49.410Z,59.95
2019-05-21T19:50:16.587Z,60.22
2019-05-21T19:52:43.368Z,60.33
2019-05-21T19:55:10.504Z,60.41
2019-05-21T19:57:37.418Z,60.46
2019-05-21T20:00:06.986Z,60.45
2019-05-21T20:02:33.969Z,60.46
2019-05-21T20:05:01.178Z,60.54
2019-05-21T20:07:28.358Z,60.79
2019-05-21T20:09:55.519Z,61.01
2019-05-21T20:12:22.623Z,61.02
2019-05-21T20:14:49.686Z,60.98
2019-05-21T20:17:17.451Z,60.95
2019-05-21T20:19:44.801Z,61.10
2019-05-21T20:22:11.539Z,61.07
2019-05-21T20:24:39.273Z,61.19
2019-05-21T20:27:06.352Z,61.12
2019-05-21T20:29:53.137Z,61.06
2019-05-21T20:32:19.909Z,61.02
2019-05-21T20:34:46.650Z,60.93
2019-05-21T20:37:13.369Z,60.90
2019-05-21T20:39:40.553Z,60.86
2019-05-21T20:42:08.014Z,60.65
2019-05-21T20:44:34.727Z,60.80
2019-05-21T20:47:01.663Z,60.86
2019-05-21T20:49:28.388Z,60.72
2019-05-21T20:51:55.473Z,60.64
2019-05-21T20:54:22.850Z,60.85
2019-05-21T20:56:50.022Z,60.89
2019-05-21T20:59:16.777Z,60.80
2019-05-21T21:01:43.848Z,60.93
2019-05-21T21:04:10.614Z,60.82
2019-05-21T21:06:38.348Z,61.17
2019-05-21T21:09:06.728Z,61.34
2019-05-21T21:11:33.598Z,61.49
2019-05-21T21:14:15.368Z,61.57
2019-05-21T21:16:29.264Z,61.40
2019-05-21T21:18:56.088Z,61.49
2019-05-21T21:21:23.311Z,61.68
2019-05-21T21:23:50.513Z,61.68
2019-05-21T21:26:17.441Z,61.57
2019-05-21T21:28:44.580Z,61.78
2019-05-21T21:31:11.706Z,61.71
2019-05-21T21:33:38.538Z,61.70
2019-05-21T21:36:05.369Z,61.45
2019-05-21T21:38:33.269Z,61.64
2019-05-21T21:41:00.119Z,61.64
2019-05-21T21:43:27.076Z,61.70
2019-05-21T21:45:53.988Z,61.59
2019-05-21T21:48:20.743Z,61.56
2019-05-21T21:50:48.076Z,61.76
2019-05-21T21:53:15.026Z,61.70
2019-05-21T21:55:41.785Z,61.55
2019-05-21T21:58:08.614Z,61.46
2019-05-21T22:00:47.479Z,61.41
2019-05-21T22:03:16.031Z,61.24
2019-05-21T22:05:42.975Z,61.47
2019-05-21T22:08:09.856Z,61.73
2019-05-21T22:10:37.989Z,61.88
2019-05-21T22:13:05.040Z,62.19
2019-05-21T22:15:32.031Z,62.15
2019-05-21T22:17:58.773Z,62.15
2019-05-21T22:20:25.507Z,61.91
2019-05-21T22:22:52.461Z,61.48
2019-05-21T22:25:19.184Z,60.88
2019-05-21T22:27:45.923Z,60.45
2019-05-21T22:30:13.065Z,60.20
2019-05-21T22:32:39.777Z,59.98
2019-05-21T22:35:06.632Z,60.03
2019-05-21T22:37:33.444Z,60.06
2019-05-21T22:40:00.375Z,59.73
2019-05-21T22:42:27.509Z,59.72
2019-05-21T22:45:07.576Z,59.98
2019-05-21T22:47:23.253Z,59.83
2019-05-21T22:49:50.005Z,59.81
2019-05-21T22:52:16.810Z,59.71
2019-05-21T22:54:43.690Z,59.64
2019-05-21T22:57:10.422Z,59.65
2019-05-21T22:59:37.421Z,59.71
2019-05-21T23:02:04.252Z,59.95
2019-05-21T23:04:30.970Z,60.18
2019-05-21T23:06:57.857Z,60.01
2019-05-21T23:09:24.704Z,59.71
2019-05-21T23:11:51.644Z,59.76
2019-05-21T23:14:18.468Z,59.84
2019-05-21T23:16:45.132Z,59.87
2019-05-21T23:22:41.591Z,60.22
2019-05-21T23:25:09.756Z,60.53
2019-05-21T23:27:36.530Z,60.81
2019-05-21T23:30:06.457Z,60.82
2019-05-21T23:32:33.228Z,60.70
2019-05-21T23:35:00.203Z,60.62
2019-05-21T23:37:27.014Z,60.87
2019-05-21T23:39:53.825Z,60.72
2019-05-21T23:42:29.100Z,60.77
2019-05-21T23:44:49.847Z,60.85
2019-05-21T23:47:16.489Z,60.87
2019-05-21T23:49:43.266Z,60.86
2019-05-21T23:52:10.089Z,60.78
2019-05-21T23:54:37.092Z,60.74
2019-05-21T23:57:05.595Z,60.98
2019-05-21T23:59:32.323Z,61.23
